Time;durP1;ratioP1;P1;durP2;ratioP2;P2;SDS_P1;SDS_P2;PMS_P1;PMS_P2;Temp;Humidity;BMP_temperature;BMP_pressure;BME280_temperature;BME280_humidity;BME280_pressure;Samples;Min_cycle;Max_cycle;Signal;HPM_P1;HPM_P2
2022/10/28 00:00:18;;;;;;;13.98;3.05;;;;;;;;;;5028878;28;20295;-71
2022/10/28 00:02:45;;;;;;;19.08;3.10;;;;;;;;;;5027845;28;20137;-72
2022/10/28 00:05:11;;;;;;;16.98;3.28;;;;;;;;;;5028920;28;20025;-72
2022/10/28 00:07:37;;;;;;;18.27;3.58;;;;;;;;;;5029011;28;20025;-72
2022/10/28 00:10:03;;;;;;;12.65;2.75;;;;;;;;;;5028525;28;20021;-73
2022/10/28 00:12:29;;;;;;;12.65;3.08;;;;;;;;;;5028910;28;20137;-72
2022/10/28 00:14:56;;;;;;;21.10;3.50;;;;;;;;;;5027714;28;20155;-72
2022/10/28 00:17:22;;;;;;;20.75;4.97;;;;;;;;;;5028848;28;20013;-72
2022/10/28 00:19:48;;;;;;;18.30;3.28;;;;;;;;;;5028585;28;20030;-72
2022/10/28 00:22:14;;;;;;;20.40;3.72;;;;;;;;;;5028660;28;20028;-72
2022/10/28 00:24:40;;;;;;;18.27;3.28;;;;;;;;;;5028960;28;20559;-72
2022/10/28 00:27:06;;;;;;;19.85;3.33;;;;;;;;;;5027916;28;20032;-72
2022/10/28 00:29:32;;;;;;;18.02;2.95;;;;;;;;;;5027502;28;20031;-73
2022/10/28 00:31:58;;;;;;;16.20;3.35;;;;;;;;;;5028642;28;20101;-73
2022/10/28 00:34:25;;;;;;;17.38;3.75;;;;;;;;;;5027971;28;20031;-73
2022/10/28 00:36:51;;;;;;;12.95;3.50;;;;;;;;;;5027247;28;20116;-73
2022/10/28 00:39:21;;;;;;;19.13;3.58;;;;;;;;;;5027811;28;20049;-73
2022/10/28 00:41:49;;;;;;;15.10;3.55;;;;;;;;;;5027005;28;20108;-74
2022/10/28 00:44:34;;;;;;;11.15;3.55;;;;;;;;;;5026735;28;20041;-73
2022/10/28 00:47:00;;;;;;;17.58;3.85;;;;;;;;;;5027989;28;20021;-73
2022/10/28 00:49:28;;;;;;;17.42;3.92;;;;;;;;;;5028038;28;20100;-73
2022/10/28 00:51:57;;;;;;;13.27;3.95;;;;;;;;;;5027948;28;20079;-73
2022/10/28 00:54:23;;;;;;;18.35;3.85;;;;;;;;;;5026655;28;20055;-73
2022/10/28 00:56:51;;;;;;;16.17;4.05;;;;;;;;;;5028056;28;20031;-73
2022/10/28 00:59:24;;;;;;;12.98;3.63;;;;;;;;;;5025060;28;20034;-73
2022/10/28 01:01:50;;;;;;;11.23;3.50;;;;;;;;;;5028078;28;20029;-72
2022/10/28 01:04:16;;;;;;;16.27;3.88;;;;;;;;;;5028187;28;20225;-74
2022/10/28 01:06:43;;;;;;;15.63;3.90;;;;;;;;;;5020285;28;20028;-73
2022/10/28 01:09:09;;;;;;;15.40;3.72;;;;;;;;;;5026656;28;20854;-73
2022/10/28 01:11:42;;;;;;;21.17;4.85;;;;;;;;;;5027913;28;20140;-72
2022/10/28 01:14:21;;;;;;;16.73;3.72;;;;;;;;;;5027952;28;20033;-73
2022/10/28 01:17:02;;;;;;;16.45;3.80;;;;;;;;;;5035680;28;20033;-73
2022/10/28 01:19:37;;;;;;;16.35;3.88;;;;;;;;;;5027632;28;20095;-73
2022/10/28 01:22:20;;;;;;;21.67;3.85;;;;;;;;;;5027873;28;20026;-73
2022/10/28 01:25:01;;;;;;;29.48;4.45;;;;;;;;;;5026068;28;20050;-73
2022/10/28 01:27:46;;;;;;;14.10;3.67;;;;;;;;;;5027309;28;20026;-73
2022/10/28 01:30:29;;;;;;;18.42;3.78;;;;;;;;;;5022579;28;20101;-73
2022/10/28 01:33:13;;;;;;;23.42;4.55;;;;;;;;;;5021303;28;20056;-73
2022/10/28 01:35:39;;;;;;;17.50;3.67;;;;;;;;;;5025807;28;20469;-72
2022/10/28 01:38:15;;;;;;;17.55;3.35;;;;;;;;;;5026112;28;20620;-72
2022/10/28 01:40:47;;;;;;;14.73;3.47;;;;;;;;;;5025172;28;20038;-73
2022/10/28 01:43:17;;;;;;;14.85;3.95;;;;;;;;;;5027342;28;20032;-73
2022/10/28 01:45:46;;;;;;;21.02;4.15;;;;;;;;;;5027027;28;20025;-73
2022/10/28 01:48:15;;;;;;;21.50;5.45;;;;;;;;;;5026885;28;20633;-73
2022/10/28 01:50:43;;;;;;;18.15;3.80;;;;;;;;;;5025261;28;20021;-73
2022/10/28 01:53:12;;;;;;;16.42;3.60;;;;;;;;;;5027102;28;20025;-73
2022/10/28 01:55:41;;;;;;;15.27;3.72;;;;;;;;;;5024325;28;20021;-74
2022/10/28 01:58:09;;;;;;;17.33;4.03;;;;;;;;;;5019684;28;20055;-74
2022/10/28 02:00:36;;;;;;;19.58;4.20;;;;;;;;;;5018385;28;20044;-73
2022/10/28 02:03:03;;;;;;;18.95;3.42;;;;;;;;;;5026759;28;20034;-73
2022/10/28 02:05:41;;;;;;;19.27;3.10;;;;;;;;;;5025433;28;20028;-72
2022/10/28 02:08:20;;;;;;;17.73;3.47;;;;;;;;;;5026569;28;20022;-73
2022/10/28 02:11:14;;;;;;;17.02;4.25;;;;;;;;;;5025103;28;20478;-73
2022/10/28 02:13:43;;;;;;;21.88;4.22;;;;;;;;;;5026630;28;20034;-73
2022/10/28 02:16:12;;;;;;;19.98;4.18;;;;;;;;;;5024905;28;20017;-73
2022/10/28 02:18:48;;;;;;;17.45;4.72;;;;;;;;;;5025131;28;20041;-74
2022/10/28 02:21:34;;;;;;;21.58;4.63;;;;;;;;;;5026037;28;20029;-73
2022/10/28 02:24:09;;;;;;;14.00;4.53;;;;;;;;;;5017322;28;20481;-73
2022/10/28 02:26:41;;;;;;;16.17;4.50;;;;;;;;;;5025052;28;20497;-73
2022/10/28 02:29:07;;;;;;;;;;;;;;;;;;5026619;28;20358;-74
2022/10/28 02:31:42;;;;;;;12.65;3.78;;;;;;;;;;5025293;28;20356;-73
2022/10/28 02:34:11;;;;;;;15.85;4.15;;;;;;;;;;5026544;28;20076;-73
2022/10/28 02:36:40;;;;;;;15.90;4.72;;;;;;;;;;5024882;28;20114;-72
2022/10/28 02:39:07;;;;;;;19.58;4.03;;;;;;;;;;5026104;28;20045;-73
2022/10/28 02:41:40;;;;;;;17.13;3.40;;;;;;;;;;5026197;28;20033;-73
2022/10/28 02:44:08;;;;;;;14.80;3.75;;;;;;;;;;5024815;28;20021;-73
2022/10/28 02:46:35;;;;;;;10.63;3.20;;;;;;;;;;5024777;28;20578;-73
2022/10/28 02:49:03;;;;;;;20.90;3.60;;;;;;;;;;5026694;28;20384;-71
2022/10/28 02:51:31;;;;;;;18.88;3.53;;;;;;;;;;5025312;28;20029;-71
2022/10/28 02:54:16;;;;;;;8.63;3.05;;;;;;;;;;5018915;28;20100;-71
2022/10/28 02:56:49;;;;;;;21.33;4.05;;;;;;;;;;5019622;28;20124;-72
2022/10/28 02:59:16;;;;;;;16.30;3.03;;;;;;;;;;5024967;28;20071;-72
2022/10/28 03:01:42;;;;;;;10.43;3.05;;;;;;;;;;5024327;28;20053;-71
2022/10/28 03:04:08;;;;;;;12.60;3.15;;;;;;;;;;5043376;28;20037;-73
2022/10/28 03:06:34;;;;;;;11.75;3.45;;;;;;;;;;5026258;28;20549;-73
2022/10/28 03:09:00;;;;;;;13.50;4.10;;;;;;;;;;5026092;28;20025;-73
2022/10/28 03:11:26;;;;;;;26.10;4.13;;;;;;;;;;5019622;28;20029;-72
2022/10/28 03:13:53;;;;;;;10.85;2.90;;;;;;;;;;5020719;28;20109;-72
2022/10/28 03:16:19;;;;;;;17.13;4.15;;;;;;;;;;5017285;28;20047;-72
2022/10/28 03:18:45;;;;;;;15.38;3.70;;;;;;;;;;5017805;28;20080;-72
2022/10/28 03:21:11;;;;;;;11.50;4.45;;;;;;;;;;5017118;28;20024;-71
2022/10/28 03:23:37;;;;;;;22.73;3.65;;;;;;;;;;5018481;28;20028;-72
2022/10/28 03:26:03;;;;;;;18.38;3.65;;;;;;;;;;5016797;28;20030;-72
2022/10/28 03:28:30;;;;;;;14.52;3.80;;;;;;;;;;5015225;28;20053;-72
2022/10/28 03:30:56;;;;;;;12.52;3.53;;;;;;;;;;5018836;28;20036;-72
2022/10/28 03:33:22;;;;;;;17.10;4.00;;;;;;;;;;5016899;28;20790;-72
2022/10/28 03:35:48;;;;;;;16.92;3.67;;;;;;;;;;5017057;28;20057;-72
2022/10/28 03:38:14;;;;;;;16.58;3.60;;;;;;;;;;5016601;28;20182;-72
2022/10/28 03:40:40;;;;;;;12.25;3.42;;;;;;;;;;5018372;28;20048;-72
2022/10/28 03:43:06;;;;;;;16.27;3.83;;;;;;;;;;5016926;28;20025;-72
2022/10/28 03:45:32;;;;;;;18.15;3.53;;;;;;;;;;5018502;28;20033;-73
2022/10/28 03:47:59;;;;;;;14.90;3.20;;;;;;;;;;5016949;28;20029;-73
2022/10/28 03:50:25;;;;;;;20.67;4.18;;;;;;;;;;5017771;28;20043;-73
2022/10/28 03:52:51;;;;;;;17.60;3.53;;;;;;;;;;5018997;28;20072;-73
2022/10/28 03:55:17;;;;;;;14.30;3.35;;;;;;;;;;5017356;28;20053;-74
2022/10/28 03:57:43;;;;;;;12.48;3.05;;;;;;;;;;5018082;28;20813;-73
2022/10/28 04:00:10;;;;;;;19.90;3.15;;;;;;;;;;5016573;28;20041;-72
2022/10/28 04:02:36;;;;;;;13.80;3.38;;;;;;;;;;5014351;28;20037;-72
2022/10/28 04:05:02;;;;;;;18.63;3.65;;;;;;;;;;5021936;28;20030;-73
2022/10/28 04:07:28;;;;;;;12.73;3.05;;;;;;;;;;5021718;28;20025;-72
2022/10/28 04:09:55;;;;;;;16.13;3.42;;;;;;;;;;5021697;28;20029;-72
2022/10/28 04:12:21;;;;;;;10.85;3.72;;;;;;;;;;5020469;28;20033;-73
2022/10/28 04:14:47;;;;;;;10.27;3.10;;;;;;;;;;5021063;28;20030;-73
2022/10/28 04:17:13;;;;;;;13.55;3.28;;;;;;;;;;5021798;28;20028;-73
2022/10/28 04:19:39;;;;;;;20.67;3.13;;;;;;;;;;5021655;28;20037;-73
2022/10/28 04:22:06;;;;;;;15.55;3.00;;;;;;;;;;5021878;28;20516;-73
2022/10/28 04:24:33;;;;;;;12.13;3.60;;;;;;;;;;5021407;28;20025;-73
2022/10/28 04:26:59;;;;;;;19.70;3.85;;;;;;;;;;5020038;28;20029;-73
2022/10/28 04:29:25;;;;;;;15.55;3.00;;;;;;;;;;5021711;28;20156;-73
2022/10/28 04:31:51;;;;;;;14.65;3.88;;;;;;;;;;5021452;28;20024;-74
2022/10/28 04:34:17;;;;;;;15.30;3.08;;;;;;;;;;5021628;28;20063;-72
2022/10/28 04:36:43;;;;;;;18.23;3.88;;;;;;;;;;5020559;28;20042;-73
2022/10/28 04:39:09;;;;;;;20.67;3.13;;;;;;;;;;5021178;28;20033;-73
2022/10/28 04:41:36;;;;;;;18.13;3.20;;;;;;;;;;5018119;28;20029;-72
2022/10/28 04:44:02;;;;;;;14.15;3.75;;;;;;;;;;5021135;28;20025;-72
2022/10/28 04:46:28;;;;;;;19.58;3.15;;;;;;;;;;5021018;28;20128;-72
2022/10/28 04:48:54;;;;;;;10.35;3.42;;;;;;;;;;5021297;28;20030;-73
2022/10/28 04:51:20;;;;;;;19.10;3.72;;;;;;;;;;5019689;28;20029;-73
2022/10/28 04:53:46;;;;;;;12.32;3.20;;;;;;;;;;5020864;28;20037;-73
2022/10/28 04:56:12;;;;;;;17.08;3.63;;;;;;;;;;5020281;28;20034;-74
2022/10/28 04:58:39;;;;;;;15.48;3.50;;;;;;;;;;5020963;28;20037;-72
2022/10/28 05:01:08;;;;;;;11.13;2.92;;;;;;;;;;5012921;28;20080;-73
2022/10/28 05:03:35;;;;;;;18.52;3.67;;;;;;;;;;5018009;28;20025;-73
2022/10/28 05:06:01;;;;;;;12.35;3.22;;;;;;;;;;5020580;28;20216;-73
2022/10/28 05:08:27;;;;;;;17.63;2.58;;;;;;;;;;5020854;28;20136;-73
2022/10/28 05:10:53;;;;;;;11.05;2.75;;;;;;;;;;5020908;28;20200;-73
2022/10/28 05:13:20;;;;;;;15.27;3.53;;;;;;;;;;5020219;28;20033;-72
2022/10/28 05:15:49;;;;;;;10.07;2.80;;;;;;;;;;5017100;28;20079;-73
2022/10/28 05:18:15;;;;;;;15.75;3.53;;;;;;;;;;5020743;28;20029;-72
2022/10/28 05:20:42;;;;;;;15.48;2.95;;;;;;;;;;5021023;28;20036;-72
2022/10/28 05:23:09;;;;;;;12.73;2.92;;;;;;;;;;5021124;28;20029;-74
2022/10/28 05:25:35;;;;;;;11.05;3.38;;;;;;;;;;5022595;28;20140;-73
2022/10/28 05:28:01;;;;;;;16.88;3.75;;;;;;;;;;5022889;28;20036;-73
2022/10/28 05:30:27;;;;;;;12.40;3.20;;;;;;;;;;5022780;28;20492;-72
2022/10/28 05:33:03;;;;;;;16.73;4.20;;;;;;;;;;5022265;28;20033;-71
2022/10/28 05:35:29;;;;;;;14.70;2.65;;;;;;;;;;5021113;28;20046;-72
2022/10/28 05:37:56;;;;;;;14.18;3.85;;;;;;;;;;5022306;28;20029;-72
2022/10/28 05:40:22;;;;;;;11.68;3.30;;;;;;;;;;5022497;28;20026;-73
2022/10/28 05:42:48;;;;;;;24.20;3.33;;;;;;;;;;5022805;28;20026;-72
2022/10/28 05:45:15;;;;;;;12.73;3.38;;;;;;;;;;5018670;28;20624;-72
2022/10/28 05:47:48;;;;;;;17.08;3.25;;;;;;;;;;5021416;28;20570;-72
2022/10/28 05:50:15;;;;;;;12.98;2.95;;;;;;;;;;5023486;28;20091;-72
2022/10/28 05:52:46;;;;;;;17.33;3.20;;;;;;;;;;5018465;28;20276;-72
2022/10/28 05:55:12;;;;;;;14.53;3.10;;;;;;;;;;5012978;28;20486;-72
2022/10/28 05:57:38;;;;;;;9.80;2.67;;;;;;;;;;5014018;28;20029;-72
2022/10/28 06:00:05;;;;;;;14.77;3.10;;;;;;;;;;5017806;28;20048;-71
2022/10/28 06:02:31;;;;;;;16.80;3.55;;;;;;;;;;5017842;28;20026;-72
2022/10/28 06:04:57;;;;;;;15.23;3.33;;;;;;;;;;5019740;28;20025;-72
2022/10/28 06:07:23;;;;;;;15.65;3.00;;;;;;;;;;5015850;28;20020;-72
2022/10/28 06:09:50;;;;;;;14.98;3.78;;;;;;;;;;5022321;28;20268;-72
2022/10/28 06:12:16;;;;;;;10.38;3.08;;;;;;;;;;5019754;28;20398;-72
2022/10/28 06:14:43;;;;;;;15.27;3.10;;;;;;;;;;5017449;28;20026;-72
2022/10/28 06:17:09;;;;;;;16.35;3.85;;;;;;;;;;5018711;28;20469;-71
2022/10/28 06:19:35;;;;;;;14.05;3.88;;;;;;;;;;5018510;28;20040;-72
2022/10/28 06:22:01;;;;;;;13.27;3.25;;;;;;;;;;5018440;28;20116;-72
2022/10/28 06:24:27;;;;;;;14.32;3.90;;;;;;;;;;5018014;28;20029;-72
2022/10/28 06:26:53;;;;;;;13.93;3.60;;;;;;;;;;5016152;28;20021;-72
2022/10/28 06:29:20;;;;;;;19.17;3.80;;;;;;;;;;5046407;28;20599;-72
2022/10/28 06:31:46;;;;;;;18.48;3.75;;;;;;;;;;5016529;28;20026;-72
2022/10/28 06:34:12;;;;;;;14.75;3.78;;;;;;;;;;5026358;28;20025;-72
2022/10/28 06:36:39;;;;;;;20.38;4.60;;;;;;;;;;5014326;28;20112;-72
2022/10/28 06:39:06;;;;;;;14.10;4.72;;;;;;;;;;5026794;28;20033;-72
2022/10/28 06:41:32;;;;;;;14.15;4.55;;;;;;;;;;5020720;28;20021;-72
2022/10/28 06:43:58;;;;;;;20.95;4.85;;;;;;;;;;5014121;28;20071;-70
2022/10/28 06:46:24;;;;;;;18.85;4.10;;;;;;;;;;5015664;28;20076;-72
2022/10/28 06:48:50;;;;;;;16.38;4.30;;;;;;;;;;5022347;28;20025;-72
2022/10/28 06:51:17;;;;;;;17.33;4.95;;;;;;;;;;5019793;28;20236;-73
2022/10/28 06:53:43;;;;;;;18.52;4.53;;;;;;;;;;5013182;28;20062;-72
2022/10/28 06:56:09;;;;;;;17.38;5.10;;;;;;;;;;5020423;28;20520;-72
2022/10/28 06:58:36;;;;;;;17.17;4.35;;;;;;;;;;5026055;28;20113;-72
2022/10/28 07:01:03;;;;;;;16.65;4.70;;;;;;;;;;5020086;28;20497;-73
2022/10/28 07:03:29;;;;;;;17.23;4.88;;;;;;;;;;5012556;28;20051;-72
2022/10/28 07:05:55;;;;;;;17.25;4.60;;;;;;;;;;5019052;28;20517;-73
2022/10/28 07:08:21;;;;;;;21.45;5.78;;;;;;;;;;5018540;28;20021;-71
2022/10/28 07:10:58;;;;;;;22.88;5.75;;;;;;;;;;5019708;28;20490;-72
2022/10/28 07:13:25;;;;;;;14.25;5.18;;;;;;;;;;5019578;28;20084;-71
2022/10/28 07:15:55;;;;;;;20.05;5.40;;;;;;;;;;5014863;28;20021;-72
2022/10/28 07:18:21;;;;;;;16.73;5.25;;;;;;;;;;5019084;28;20067;-73
2022/10/28 07:20:47;;;;;;;14.63;5.53;;;;;;;;;;5017505;28;20021;-71
2022/10/28 07:23:13;;;;;;;13.32;4.75;;;;;;;;;;5011934;28;20021;-72
2022/10/28 07:25:39;;;;;;;20.10;6.30;;;;;;;;;;5014704;28;20609;-74
2022/10/28 07:28:06;;;;;;;17.63;5.63;;;;;;;;;;5023220;28;20518;-72
2022/10/28 07:30:32;;;;;;;19.10;5.72;;;;;;;;;;5010075;28;20382;-72
2022/10/28 07:32:59;;;;;;;18.73;5.75;;;;;;;;;;5019098;28;20467;-72
2022/10/28 07:35:29;;;;;;;26.55;5.90;;;;;;;;;;5020470;28;20117;-72
2022/10/28 07:37:55;;;;;;;20.42;5.47;;;;;;;;;;5022194;28;20029;-72
2022/10/28 07:40:22;;;;;;;18.10;5.95;;;;;;;;;;5023072;28;20272;-73
2022/10/28 07:42:48;;;;;;;11.55;5.28;;;;;;;;;;5015965;28;20030;-72
2022/10/28 07:45:15;;;;;;;26.85;6.15;;;;;;;;;;5038959;28;20071;-71
2022/10/28 07:47:41;;;;;;;21.10;5.95;;;;;;;;;;5027771;28;20030;-71
2022/10/28 07:50:08;;;;;;;19.48;5.68;;;;;;;;;;5019114;28;20117;-72
2022/10/28 07:52:35;;;;;;;16.00;4.53;;;;;;;;;;5021369;28;20026;-72
2022/10/28 07:55:01;;;;;;;18.00;5.07;;;;;;;;;;5015513;28;20018;-72
2022/10/28 07:57:28;;;;;;;23.70;5.70;;;;;;;;;;5022228;28;20053;-72
2022/10/28 07:59:54;;;;;;;15.55;5.30;;;;;;;;;;5021139;28;20034;-72
2022/10/28 08:02:21;;;;;;;28.35;5.50;;;;;;;;;;5020101;28;20096;-72
2022/10/28 08:04:47;;;;;;;22.02;6.00;;;;;;;;;;5019270;28;20096;-72
2022/10/28 08:07:13;;;;;;;31.10;6.18;;;;;;;;;;5022702;28;20104;-72
2022/10/28 08:09:40;;;;;;;19.30;5.88;;;;;;;;;;5022963;28;20048;-71
2022/10/28 08:12:07;;;;;;;18.67;7.57;;;;;;;;;;5019628;28;20018;-71
2022/10/28 08:14:33;;;;;;;24.85;9.07;;;;;;;;;;5028439;28;20105;-72
2022/10/28 08:17:00;;;;;;;19.45;8.82;;;;;;;;;;5029105;28;20021;-72
2022/10/28 08:19:26;;;;;;;21.13;8.82;;;;;;;;;;5017275;28;20037;-76
2022/10/28 08:21:53;;;;;;;21.45;9.25;;;;;;;;;;5017143;28;20428;-74
2022/10/28 08:24:19;;;;;;;31.05;13.68;;;;;;;;;;5022987;28;20018;-75
2022/10/28 08:26:45;;;;;;;27.80;12.43;;;;;;;;;;5021156;28;20044;-73
2022/10/28 08:29:11;;;;;;;22.73;8.10;;;;;;;;;;5015239;28;20175;-81
2022/10/28 08:31:38;;;;;;;20.92;7.95;;;;;;;;;;5011927;28;20062;-79
2022/10/28 08:34:05;;;;;;;25.25;6.75;;;;;;;;;;5014557;28;20029;-77
2022/10/28 08:36:31;;;;;;;17.65;6.70;;;;;;;;;;5012793;28;20495;-79
2022/10/28 08:39:03;;;;;;;24.10;8.65;;;;;;;;;;5018160;28;20034;-76
2022/10/28 08:41:35;;;;;;;25.40;8.05;;;;;;;;;;5014323;28;20083;-78
2022/10/28 08:44:20;;;;;;;23.05;8.18;;;;;;;;;;5010847;28;20780;-78
2022/10/28 08:46:49;;;;;;;16.73;7.80;;;;;;;;;;5012939;28;20073;-77
2022/10/28 08:49:17;;;;;;;30.83;8.45;;;;;;;;;;5015498;28;20060;-77
2022/10/28 08:52:02;;;;;;;29.67;9.25;;;;;;;;;;5003013;28;20558;-73
2022/10/28 08:54:46;;;;;;;28.20;8.95;;;;;;;;;;5006835;28;20030;-79
2022/10/28 08:57:16;;;;;;;25.23;8.98;;;;;;;;;;5009991;28;20030;-80
2022/10/28 08:59:43;;;;;;;25.35;9.60;;;;;;;;;;5010740;28;20059;-81
2022/10/28 09:02:18;;;;;;;19.15;7.70;;;;;;;;;;5005872;28;20112;-75
2022/10/28 09:04:45;;;;;;;25.15;8.40;;;;;;;;;;5011651;28;20106;-74
2022/10/28 09:07:19;;;;;;;17.33;6.85;;;;;;;;;;5022876;28;20032;-73
2022/10/28 09:09:46;;;;;;;21.73;7.63;;;;;;;;;;5021599;28;20102;-82
2022/10/28 09:12:24;;;;;;;21.90;7.55;;;;;;;;;;5021923;28;20482;-78
2022/10/28 09:15:10;;;;;;;21.95;7.22;;;;;;;;;;5016826;28;20109;-79
2022/10/28 09:17:47;;;;;;;23.88;7.25;;;;;;;;;;5022640;28;20473;-79
2022/10/28 09:20:39;;;;;;;21.38;8.40;;;;;;;;;;5023070;28;20043;-80
2022/10/28 09:23:14;;;;;;;25.73;8.43;;;;;;;;;;5019377;28;20045;-73
2022/10/28 09:25:47;;;;;;;21.65;6.40;;;;;;;;;;5022393;28;20032;-76
2022/10/28 09:28:16;;;;;;;21.50;6.47;;;;;;;;;;5020124;28;20028;-80
2022/10/28 09:30:53;;;;;;;34.10;10.18;;;;;;;;;;5021262;28;20028;-76
2022/10/28 09:33:25;;;;;;;19.75;8.90;;;;;;;;;;5022944;28;20064;-80
2022/10/28 09:35:51;;;;;;;18.10;7.72;;;;;;;;;;5022579;28;20136;-76
2022/10/28 09:38:46;;;;;;;22.58;7.47;;;;;;;;;;5022672;28;20030;-78
2022/10/28 09:41:31;;;;;;;27.00;7.88;;;;;;;;;;5024566;28;20041;-76
2022/10/28 09:44:06;;;;;;;21.65;6.63;;;;;;;;;;5020862;28;20022;-77
2022/10/28 09:46:33;;;;;;;25.67;6.93;;;;;;;;;;5022656;28;20018;-77
2022/10/28 09:49:02;;;;;;;18.23;7.13;;;;;;;;;;5022377;28;20104;-76
2022/10/28 09:51:42;;;;;;;24.60;6.97;;;;;;;;;;5021056;28;20029;-75
2022/10/28 09:54:09;;;;;;;25.38;7.18;;;;;;;;;;5022125;28;20018;-76
2022/10/28 09:56:36;;;;;;;25.52;7.60;;;;;;;;;;5022683;28;20759;-76
2022/10/28 09:59:02;;;;;;;27.33;7.65;;;;;;;;;;5022234;28;20033;-74
2022/10/28 10:01:31;;;;;;;25.40;7.25;;;;;;;;;;5022215;28;20022;-74
2022/10/28 10:03:58;;;;;;;23.92;7.25;;;;;;;;;;5005008;28;20026;-75
2022/10/28 10:06:32;;;;;;;23.48;7.45;;;;;;;;;;5011041;28;20194;-76
2022/10/28 10:08:59;;;;;;;23.05;7.70;;;;;;;;;;5021961;28;20063;-76
2022/10/28 10:11:43;;;;;;;19.13;7.38;;;;;;;;;;5022160;28;20021;-74
2022/10/28 10:14:12;;;;;;;19.15;7.45;;;;;;;;;;5020528;28;21292;-73
2022/10/28 10:16:41;;;;;;;31.35;7.85;;;;;;;;;;5022014;28;20674;-74
2022/10/28 10:19:09;;;;;;;27.65;7.93;;;;;;;;;;5021224;28;20041;-71
2022/10/28 10:21:44;;;;;;;25.08;8.50;;;;;;;;;;5021347;28;20124;-73
2022/10/28 10:24:25;;;;;;;23.92;8.35;;;;;;;;;;5021600;28;20022;-74
2022/10/28 10:26:52;;;;;;;21.20;7.82;;;;;;;;;;5012197;28;20109;-73
2022/10/28 10:29:19;;;;;;;29.33;8.85;;;;;;;;;;5015025;28;20517;-77
2022/10/28 10:31:46;;;;;;;28.58;8.00;;;;;;;;;;5021301;28;20021;-73
2022/10/28 10:34:28;;;;;;;20.88;8.30;;;;;;;;;;5020358;28;20029;-75
2022/10/28 10:36:55;;;;;;;21.95;8.10;;;;;;;;;;5014477;28;20073;-72
2022/10/28 10:39:26;;;;;;;24.23;8.10;;;;;;;;;;5019336;28;20053;-73
2022/10/28 10:41:54;;;;;;;26.83;8.30;;;;;;;;;;5016968;28;20022;-74
2022/10/28 10:44:20;;;;;;;24.95;8.38;;;;;;;;;;5020917;28;20066;-76
2022/10/28 10:46:47;;;;;;;28.63;8.80;;;;;;;;;;5021370;28;20100;-72
2022/10/28 10:49:14;;;;;;;31.95;9.05;;;;;;;;;;5018701;28;20120;-75
2022/10/28 10:51:50;;;;;;;25.17;9.05;;;;;;;;;;5017535;28;20030;-78
2022/10/28 10:54:17;;;;;;;30.73;9.90;;;;;;;;;;5010374;28;20037;-78
2022/10/28 10:56:44;;;;;;;30.20;10.48;;;;;;;;;;5020286;28;20026;-73
2022/10/28 10:59:27;;;;;;;29.67;10.10;;;;;;;;;;5020832;28;20033;-73
2022/10/28 11:01:53;;;;;;;31.80;10.02;;;;;;;;;;5021514;28;20022;-75
2022/10/28 11:04:21;;;;;;;25.08;9.85;;;;;;;;;;5011269;28;20041;-77
2022/10/28 11:06:51;;;;;;;29.23;10.30;;;;;;;;;;5018696;28;20124;-76
2022/10/28 11:09:20;;;;;;;32.92;11.30;;;;;;;;;;5021151;28;20091;-75
2022/10/28 11:11:46;;;;;;;30.60;11.65;;;;;;;;;;5020813;28;20424;-78
2022/10/28 11:14:12;;;;;;;28.58;10.23;;;;;;;;;;5020352;28;20025;-75
2022/10/28 11:16:52;;;;;;;26.75;10.48;;;;;;;;;;5021006;28;20087;-73
2022/10/28 11:19:38;;;;;;;18.33;9.73;;;;;;;;;;5017054;28;20509;-77
2022/10/28 11:22:04;;;;;;;29.42;10.25;;;;;;;;;;5013011;28;20057;-73
2022/10/28 11:24:31;;;;;;;29.08;9.70;;;;;;;;;;5020778;28;20021;-76
2022/10/28 11:27:07;;;;;;;27.00;9.45;;;;;;;;;;5019012;28;20029;-76
2022/10/28 11:29:33;;;;;;;27.02;9.13;;;;;;;;;;5020142;28;20035;-75
2022/10/28 11:32:02;;;;;;;30.77;9.18;;;;;;;;;;5021101;28;20401;-76
2022/10/28 11:34:29;;;;;;;26.58;9.10;;;;;;;;;;5019592;28;20040;-75
2022/10/28 11:37:08;;;;;;;30.02;8.15;;;;;;;;;;5020671;28;20124;-76
2022/10/28 11:39:35;;;;;;;31.85;8.38;;;;;;;;;;5016635;28;20026;-75
2022/10/28 11:42:04;;;;;;;25.75;8.98;;;;;;;;;;5015197;28;20026;-77
2022/10/28 11:44:37;;;;;;;21.58;7.28;;;;;;;;;;5020561;28;20477;-76
2022/10/28 11:47:10;;;;;;;25.95;8.88;;;;;;;;;;5019888;28;20152;-74
2022/10/28 11:49:58;;;;;;;29.50;8.43;;;;;;;;;;5020851;28;20043;-77
2022/10/28 11:52:27;;;;;;;31.48;8.52;;;;;;;;;;5015494;28;20632;-74
2022/10/28 11:55:08;;;;;;;26.70;8.07;;;;;;;;;;5019106;28;20112;-73
2022/10/28 11:57:41;;;;;;;36.88;9.82;;;;;;;;;;5020934;28;20026;-77
2022/10/28 12:00:26;;;;;;;29.33;8.52;;;;;;;;;;5019047;28;20064;-78
2022/10/28 12:03:01;;;;;;;28.23;8.40;;;;;;;;;;5020396;28;20048;-78
2022/10/28 12:05:34;;;;;;;29.23;8.73;;;;;;;;;;5020377;28;20044;-77
2022/10/28 12:08:08;;;;;;;28.05;8.60;;;;;;;;;;5018338;28;20039;-78
2022/10/28 12:10:39;;;;;;;23.02;7.15;;;;;;;;;;5020352;28;20544;-78
2022/10/28 12:13:11;;;;;;;26.83;7.38;;;;;;;;;;5018261;28;20018;-77
2022/10/28 12:15:37;;;;;;;;;;;;;;;;;;5020512;28;20044;-76
2022/10/28 12:18:08;;;;;;;27.33;8.48;;;;;;;;;;5011147;28;19913;-78
2022/10/28 12:20:37;;;;;;;37.20;9.10;;;;;;;;;;5017668;28;20117;-76
2022/10/28 12:23:08;;;;;;;22.63;7.68;;;;;;;;;;5005359;28;20112;-77
2022/10/28 12:25:36;;;;;;;25.20;8.65;;;;;;;;;;5021483;28;20021;-77
2022/10/28 12:28:06;;;;;;;27.55;8.73;;;;;;;;;;5023838;28;20024;-75
2022/10/28 12:30:34;;;;;;;22.85;8.15;;;;;;;;;;5022430;28;20032;-74
2022/10/28 12:33:03;;;;;;;18.48;7.45;;;;;;;;;;5020389;28;20071;-78
2022/10/28 12:35:36;;;;;;;24.83;8.48;;;;;;;;;;5022515;28;20049;-75
2022/10/28 12:38:07;;;;;;;19.95;8.30;;;;;;;;;;5023486;28;20624;-74
2022/10/28 12:40:54;;;;;;;25.80;8.57;;;;;;;;;;5023970;28;20044;-78
2022/10/28 12:43:23;;;;;;;25.00;8.93;;;;;;;;;;5017463;28;20041;-74
2022/10/28 12:45:52;;;;;;;25.80;8.60;;;;;;;;;;5023310;28;20022;-77
2022/10/28 12:48:24;;;;;;;21.90;6.95;;;;;;;;;;5022786;28;20100;-74
2022/10/28 12:50:56;;;;;;;27.08;9.40;;;;;;;;;;5018017;28;20385;-75
2022/10/28 12:53:35;;;;;;;31.42;8.02;;;;;;;;;;5010650;28;20091;-77
2022/10/28 12:56:02;;;;;;;22.65;8.07;;;;;;;;;;5009577;28;20109;-74
2022/10/28 12:58:28;;;;;;;23.10;7.90;;;;;;;;;;5014430;28;20506;-74
2022/10/28 13:00:57;;;;;;;24.55;8.10;;;;;;;;;;5014974;28;20474;-75
2022/10/28 13:03:23;;;;;;;29.40;8.45;;;;;;;;;;5018399;28;20029;-74
2022/10/28 13:06:07;;;;;;;29.42;8.75;;;;;;;;;;5022910;28;20029;-75
2022/10/28 13:08:33;;;;;;;26.75;7.78;;;;;;;;;;5021303;28;20119;-77
2022/10/28 13:11:18;;;;;;;20.15;7.43;;;;;;;;;;5022821;28;20024;-74
2022/10/28 13:13:47;;;;;;;23.95;8.23;;;;;;;;;;5022890;28;20289;-74
2022/10/28 13:16:25;;;;;;;24.10;8.15;;;;;;;;;;5022910;28;20164;-74
2022/10/28 13:18:54;;;;;;;25.67;7.32;;;;;;;;;;5020593;28;20542;-76
2022/10/28 13:21:28;;;;;;;26.90;8.00;;;;;;;;;;5020905;28;20037;-76
2022/10/28 13:23:57;;;;;;;27.05;9.05;;;;;;;;;;5023065;28;20921;-73
2022/10/28 13:26:36;;;;;;;25.85;7.88;;;;;;;;;;5020567;28;20082;-74
2022/10/28 13:29:06;;;;;;;28.52;8.68;;;;;;;;;;5021122;28;20111;-75
2022/10/28 13:31:42;;;;;;;24.95;7.50;;;;;;;;;;5021106;28;20021;-74
2022/10/28 13:34:09;;;;;;;24.85;7.47;;;;;;;;;;5019122;28;20042;-72
2022/10/28 13:36:41;;;;;;;29.13;9.10;;;;;;;;;;5015579;28;20705;-75
2022/10/28 13:39:22;;;;;;;21.50;7.38;;;;;;;;;;5015944;28;20507;-75
2022/10/28 13:41:48;;;;;;;31.10;8.68;;;;;;;;;;5021040;28;20394;-74
2022/10/28 13:44:25;;;;;;;21.65;8.15;;;;;;;;;;5010410;28;20100;-73
2022/10/28 13:47:04;;;;;;;29.80;7.70;;;;;;;;;;5016782;28;20079;-77
2022/10/28 13:49:30;;;;;;;28.98;9.05;;;;;;;;;;5022278;28;20094;-74
2022/10/28 13:52:12;;;;;;;26.30;8.50;;;;;;;;;;5022035;28;20033;-79
2022/10/28 13:54:44;;;;;;;19.42;8.00;;;;;;;;;;5017196;28;20104;-75
2022/10/28 13:57:18;;;;;;;20.60;7.97;;;;;;;;;;5017568;28;20412;-74
2022/10/28 13:59:50;;;;;;;21.55;7.97;;;;;;;;;;5020564;28;20041;-76
2022/10/28 14:02:27;;;;;;;23.00;7.97;;;;;;;;;;5008906;28;21564;-73
2022/10/28 14:04:57;;;;;;;34.38;9.27;;;;;;;;;;5022313;28;20103;-74
2022/10/28 14:07:26;;;;;;;25.77;8.90;;;;;;;;;;5022320;28;20107;-74
2022/10/28 14:09:55;;;;;;;20.30;8.45;;;;;;;;;;5012593;28;20420;-75
2022/10/28 14:12:24;;;;;;;27.25;8.65;;;;;;;;;;5020592;28;20029;-74
2022/10/28 14:14:56;;;;;;;27.35;8.30;;;;;;;;;;5021856;28;20023;-75
2022/10/28 14:17:24;;;;;;;22.55;7.63;;;;;;;;;;5021735;28;20554;-74
2022/10/28 14:19:51;;;;;;;25.67;8.98;;;;;;;;;;5022337;28;20056;-73
2022/10/28 14:22:31;;;;;;;23.92;8.48;;;;;;;;;;5019844;28;20041;-73
2022/10/28 14:24:57;;;;;;;29.08;8.48;;;;;;;;;;5009621;28;20021;-74
2022/10/28 14:27:27;;;;;;;24.23;8.80;;;;;;;;;;5021865;28;20100;-74
2022/10/28 14:29:57;;;;;;;31.23;9.38;;;;;;;;;;5008607;28;20033;-74
2022/10/28 14:32:32;;;;;;;32.70;8.80;;;;;;;;;;5020782;28;20409;-74
2022/10/28 14:34:59;;;;;;;31.63;9.43;;;;;;;;;;5007588;28;20409;-76
2022/10/28 14:37:47;;;;;;;33.63;9.27;;;;;;;;;;5021091;28;20034;-75
2022/10/28 14:40:19;;;;;;;30.45;8.35;;;;;;;;;;5008992;28;20111;-74
2022/10/28 14:42:55;;;;;;;25.23;8.40;;;;;;;;;;5022225;28;20032;-77
2022/10/28 14:45:33;;;;;;;26.17;9.48;;;;;;;;;;5018797;28;20184;-74